createdAt,value
2023-03-05T00:01:15.208Z,4.08
2023-03-05T00:03:42.331Z,4.17
2023-03-05T00:06:09.600Z,3.95
2023-03-05T00:08:37.286Z,3.98
2023-03-05T00:11:08.498Z,4.20
2023-03-05T00:13:36.647Z,4.10
2023-03-05T00:16:10.513Z,3.96
2023-03-05T00:18:38.544Z,3.90
2023-03-05T00:21:16.738Z,3.83
2023-03-05T00:23:43.954Z,3.97
2023-03-05T00:26:11.024Z,3.97
2023-03-05T00:28:39.000Z,3.96
2023-03-05T00:31:06.079Z,3.77
2023-03-05T00:33:33.208Z,3.86
2023-03-05T00:36:02.432Z,3.94
2023-03-05T00:38:29.509Z,3.72
2023-03-05T00:40:56.540Z,3.85
2023-03-05T00:43:23.860Z,4.10
2023-03-05T00:45:50.871Z,3.83
2023-03-05T00:48:18.443Z,3.83
2023-03-05T00:50:46.074Z,3.85
2023-03-05T00:53:13.119Z,3.47
2023-03-05T00:55:40.211Z,3.92
2023-03-05T00:58:07.236Z,3.88
2023-03-05T01:00:34.321Z,3.90
2023-03-05T01:03:01.488Z,4.01
2023-03-05T01:05:28.583Z,3.86
2023-03-05T01:07:56.255Z,3.64
2023-03-05T01:10:27.528Z,3.74
2023-03-05T01:12:56.500Z,3.65
2023-03-05T01:15:24.824Z,3.68
2023-03-05T01:17:52.180Z,3.63
2023-03-05T01:20:22.114Z,3.69
2023-03-05T01:22:49.386Z,3.61
2023-03-05T01:25:17.680Z,3.63
2023-03-05T01:27:44.930Z,3.31
2023-03-05T01:30:13.866Z,3.24
2023-03-05T01:32:41.769Z,3.46
2023-03-05T01:35:15.261Z,3.50
2023-03-05T01:37:42.295Z,3.51
2023-03-05T01:40:16.445Z,3.51
2023-03-05T01:42:49.206Z,3.30
2023-03-05T01:45:18.521Z,3.51
2023-03-05T01:47:45.992Z,3.34
2023-03-05T01:50:17.488Z,3.67
2023-03-05T01:52:51.104Z,3.24
2023-03-05T01:55:23.625Z,3.60
2023-03-05T01:58:03.046Z,3.51
2023-03-05T02:00:35.293Z,3.73
2023-03-05T02:03:06.502Z,3.59
2023-03-05T02:05:36.300Z,3.62
2023-03-05T02:08:09.276Z,3.60
2023-03-05T02:10:45.936Z,3.54
2023-03-05T02:13:25.199Z,3.48
2023-03-05T02:15:54.553Z,3.50
2023-03-05T02:18:22.291Z,3.53
2023-03-05T02:20:51.171Z,3.46
2023-03-05T02:23:21.005Z,3.48
2023-03-05T02:25:48.571Z,3.44
2023-03-05T02:28:53.883Z,3.39
2023-03-05T02:31:24.005Z,3.37
2023-03-05T02:33:52.192Z,3.41
2023-03-05T02:36:20.325Z,3.39
2023-03-05T02:38:47.838Z,3.12
2023-03-05T02:41:15.633Z,3.38
2023-03-05T02:43:42.969Z,3.33
2023-03-05T02:46:10.500Z,3.57
2023-03-05T02:48:39.879Z,3.10
2023-03-05T02:51:07.796Z,3.48
2023-03-05T02:53:35.451Z,3.43
2023-03-05T02:56:03.140Z,3.39
2023-03-05T02:58:32.935Z,3.66
2023-03-05T03:01:00.113Z,3.51
2023-03-05T03:03:27.468Z,3.48
2023-03-05T03:05:54.481Z,3.49
2023-03-05T03:08:21.459Z,3.49
2023-03-05T03:10:48.432Z,3.50
2023-03-05T03:13:15.479Z,3.56
2023-03-05T03:15:42.508Z,3.43
2023-03-05T03:18:09.747Z,3.45
2023-03-05T03:20:40.108Z,3.45
2023-03-05T03:23:07.305Z,3.00
2023-03-05T03:25:35.145Z,3.24
2023-03-05T03:28:02.240Z,3.41
2023-03-05T03:30:29.337Z,3.34
2023-03-05T03:32:56.318Z,3.52
2023-03-05T03:35:23.391Z,3.54
2023-03-05T03:37:50.441Z,3.62
2023-03-05T03:40:17.735Z,3.36
2023-03-05T03:42:44.837Z,3.53
2023-03-05T03:45:12.530Z,3.61
2023-03-05T03:47:39.524Z,3.50
2023-03-05T03:50:06.956Z,3.56
2023-03-05T03:52:34.084Z,3.52
2023-03-05T03:55:01.503Z,3.33
2023-03-05T03:57:29.970Z,3.40
2023-03-05T03:59:56.982Z,3.40
2023-03-05T04:02:24.072Z,3.33
2023-03-05T04:04:52.021Z,3.25
2023-03-05T04:07:19.522Z,3.19
2023-03-05T04:09:46.599Z,3.17
2023-03-05T04:12:17.873Z,3.25
2023-03-05T04:14:46.249Z,3.31
2023-03-05T04:17:14.290Z,3.24
2023-03-05T04:19:41.997Z,3.32
2023-03-05T04:22:14.075Z,3.21
2023-03-05T04:24:41.357Z,3.31
2023-03-05T04:27:08.815Z,3.31
2023-03-05T04:29:36.094Z,3.19
2023-03-05T04:32:03.773Z,3.13
2023-03-05T04:34:30.835Z,3.15
2023-03-05T04:36:57.904Z,3.20
2023-03-05T04:39:25.178Z,3.10
2023-03-05T04:41:52.229Z,3.21
2023-03-05T04:44:19.297Z,3.36
2023-03-05T04:46:46.440Z,3.28
2023-03-05T04:49:13.481Z,3.38
2023-03-05T04:51:40.487Z,3.29
2023-03-05T04:54:08.076Z,3.38
2023-03-05T04:56:35.112Z,3.42
2023-03-05T04:59:02.097Z,3.36
2023-03-05T05:01:29.223Z,3.37
2023-03-05T05:03:56.239Z,3.41
2023-03-05T05:06:23.297Z,2.97
2023-03-05T05:08:50.303Z,3.33
2023-03-05T05:11:18.098Z,3.22
2023-03-05T05:13:45.166Z,3.15
2023-03-05T05:16:12.270Z,3.15
2023-03-05T05:18:39.357Z,3.21
2023-03-05T05:21:10.614Z,3.17
2023-03-05T05:23:37.757Z,3.05
2023-03-05T05:26:06.769Z,3.00
2023-03-05T05:28:35.048Z,2.84
2023-03-05T05:31:07.687Z,2.80
2023-03-05T05:33:34.782Z,3.04
2023-03-05T05:36:04.402Z,3.05
2023-03-05T05:38:31.735Z,3.09
2023-03-05T05:41:07.184Z,3.06
2023-03-05T05:43:34.191Z,3.10
2023-03-05T05:46:08.175Z,3.17
2023-03-05T05:48:36.200Z,2.98
2023-03-05T05:51:08.368Z,2.69
2023-03-05T05:53:35.674Z,2.86
2023-03-05T05:56:05.055Z,2.90
2023-03-05T05:58:32.145Z,2.91
2023-03-05T06:00:59.269Z,2.93
2023-03-05T06:03:26.404Z,2.95
2023-03-05T06:05:53.802Z,2.48
2023-03-05T06:08:20.825Z,2.79
2023-03-05T06:10:54.387Z,2.98
2023-03-05T06:13:21.480Z,2.70
2023-03-05T06:16:02.725Z,3.09
2023-03-05T06:18:30.672Z,2.97
2023-03-05T06:20:59.856Z,3.07
2023-03-05T06:23:27.820Z,3.15
2023-03-05T06:25:55.491Z,3.08
2023-03-05T06:28:22.529Z,3.11
2023-03-05T06:30:49.607Z,3.03
2023-03-05T06:33:17.536Z,3.12
2023-03-05T06:35:44.626Z,3.19
2023-03-05T06:38:11.640Z,2.97
2023-03-05T06:40:39.706Z,3.11
2023-03-05T06:43:07.001Z,2.78
2023-03-05T06:45:34.070Z,3.23
2023-03-05T06:48:01.055Z,3.31
2023-03-05T06:50:28.399Z,3.12
2023-03-05T06:52:55.474Z,3.22
2023-03-05T06:55:22.456Z,3.23
2023-03-05T06:57:49.449Z,3.17
2023-03-05T07:00:16.967Z,3.06
2023-03-05T07:02:44.051Z,3.23
2023-03-05T07:05:11.245Z,2.97
2023-03-05T07:07:38.298Z,3.19
2023-03-05T07:10:07.498Z,3.25
2023-03-05T07:12:35.152Z,2.93
2023-03-05T07:15:02.239Z,3.19
2023-03-05T07:17:29.785Z,3.25
2023-03-05T07:19:56.770Z,3.05
2023-03-05T07:22:23.800Z,3.20
2023-03-05T07:24:51.056Z,3.07
2023-03-05T07:27:18.060Z,3.12
2023-03-05T07:29:45.093Z,2.95
2023-03-05T07:32:12.110Z,3.03
2023-03-05T07:34:39.180Z,3.24
2023-03-05T07:37:06.254Z,3.21
2023-03-05T07:39:33.366Z,3.31
2023-03-05T07:42:00.374Z,3.15
2023-03-05T07:44:38.892Z,3.24
2023-03-05T07:47:06.221Z,2.94
2023-03-05T07:49:33.200Z,3.25
2023-03-05T07:52:00.381Z,3.31
2023-03-05T07:54:27.355Z,3.15
2023-03-05T07:56:54.701Z,3.29
2023-03-05T07:59:21.664Z,3.38
2023-03-05T08:01:48.637Z,3.40
2023-03-05T08:04:15.663Z,3.63
2023-03-05T08:06:42.757Z,3.64
2023-03-05T08:09:09.818Z,3.82
2023-03-05T08:11:36.853Z,3.86
2023-03-05T08:14:04.485Z,4.01
2023-03-05T08:16:31.952Z,3.96
2023-03-05T08:18:59.067Z,4.15
2023-03-05T08:21:33.732Z,4.33
2023-03-05T08:24:07.814Z,4.31
2023-03-05T08:26:38.358Z,4.39
2023-03-05T08:29:07.482Z,4.52
2023-03-05T08:31:35.512Z,4.78
2023-03-05T08:34:03.712Z,4.27
2023-03-05T08:36:30.855Z,4.53
2023-03-05T08:38:59.649Z,4.65
2023-03-05T08:41:26.950Z,4.45
2023-03-05T08:43:54.003Z,4.89
2023-03-05T08:46:21.069Z,4.97
2023-03-05T08:48:48.180Z,4.78
2023-03-05T08:51:17.956Z,4.97
2023-03-05T08:53:46.302Z,5.03
2023-03-05T08:56:14.513Z,4.98
2023-03-05T08:58:42.063Z,4.97
2023-03-05T09:01:09.233Z,4.83
2023-03-05T09:03:36.497Z,4.52
2023-03-05T09:06:06.734Z,4.52
2023-03-05T09:08:35.568Z,4.42
2023-03-05T09:11:05.193Z,4.74
2023-03-05T09:13:32.914Z,4.36
2023-03-05T09:16:08.911Z,4.64
2023-03-05T09:18:36.698Z,4.63
2023-03-05T09:21:08.673Z,4.37
2023-03-05T09:23:35.680Z,4.65
2023-03-05T09:26:05.896Z,4.76
2023-03-05T09:28:32.969Z,4.49
2023-03-05T09:31:04.496Z,4.53
2023-03-05T09:33:32.930Z,4.63
2023-03-05T09:36:00.928Z,4.59
2023-03-05T09:38:29.081Z,4.58
2023-03-05T09:41:03.446Z,4.64
2023-03-05T09:43:44.137Z,4.52
2023-03-05T09:46:29.590Z,4.58
2023-03-05T09:49:13.698Z,4.45
2023-03-05T09:51:46.404Z,4.78
2023-03-05T09:54:21.416Z,4.98
2023-03-05T09:56:53.157Z,5.16
2023-03-05T09:59:29.548Z,4.97
2023-03-05T10:02:01.384Z,5.37
2023-03-05T10:04:52.408Z,5.14
2023-03-05T10:07:37.256Z,5.28
2023-03-05T10:10:15.546Z,5.41
2023-03-05T10:12:45.714Z,5.48
2023-03-05T10:15:16.274Z,5.56
2023-03-05T10:18:01.595Z,5.62
2023-03-05T10:21:22.036Z,5.39
2023-03-05T10:24:06.185Z,5.52
2023-03-05T10:26:57.529Z,5.76
2023-03-05T10:29:43.254Z,5.75
2023-03-05T10:32:29.460Z,5.90
2023-03-05T10:35:14.946Z,5.82
2023-03-05T10:37:51.590Z,5.81
2023-03-05T10:40:18.597Z,5.92
2023-03-05T10:43:16.065Z,5.92
2023-03-05T10:45:54.492Z,5.59
2023-03-05T10:49:09.696Z,5.15
2023-03-05T10:51:44.005Z,5.07
2023-03-05T10:54:29.687Z,5.07
2023-03-05T10:57:12.367Z,5.27
2023-03-05T10:59:44.251Z,5.08
2023-03-05T11:02:11.547Z,5.11
2023-03-05T11:04:40.962Z,5.06
2023-03-05T11:07:16.774Z,5.06
2023-03-05T11:10:04.246Z,4.98
2023-03-05T11:12:37.162Z,4.76
2023-03-05T11:15:10.143Z,4.76
2023-03-05T11:17:48.865Z,4.72
2023-03-05T11:20:28.774Z,4.50
2023-03-05T11:23:05.894Z,4.61
2023-03-05T11:25:34.685Z,4.44
2023-03-05T11:28:03.047Z,4.28
2023-03-05T11:30:36.364Z,4.25
2023-03-05T11:33:19.368Z,4.38
2023-03-05T11:35:48.078Z,4.54
2023-03-05T11:38:19.522Z,5.00
2023-03-05T11:40:47.393Z,5.03
2023-03-05T11:43:21.455Z,5.29
2023-03-05T11:45:55.583Z,5.38
2023-03-05T11:48:30.451Z,5.49
2023-03-05T11:51:06.174Z,5.41
2023-03-05T11:53:36.690Z,5.28
2023-03-05T11:56:19.616Z,5.05
2023-03-05T11:58:52.151Z,5.04
2023-03-05T12:01:23.404Z,5.29
2023-03-05T12:03:52.815Z,5.22
2023-03-05T12:06:33.879Z,5.60
2023-03-05T12:09:07.581Z,5.43
2023-03-05T12:11:36.463Z,5.71
2023-03-05T12:14:17.832Z,5.77
2023-03-05T12:17:01.810Z,5.71
2023-03-05T12:19:32.763Z,5.65
2023-03-05T12:22:00.411Z,5.79
2023-03-05T12:24:28.470Z,5.95
2023-03-05T12:27:04.748Z,6.05
2023-03-05T12:29:49.893Z,6.11
2023-03-05T12:32:23.206Z,6.25
2023-03-05T12:34:57.277Z,6.09
2023-03-05T12:37:24.175Z,6.21
2023-03-05T12:40:07.115Z,6.32
2023-03-05T12:42:34.017Z,6.21
2023-03-05T12:45:11.625Z,6.23
2023-03-05T13:04:32.268Z,5.41
2023-03-05T13:07:05.795Z,5.32
2023-03-05T13:09:36.173Z,5.23
2023-03-05T13:12:11.328Z,4.98
2023-03-05T13:15:14.888Z,5.24
2023-03-05T13:17:54.332Z,5.05
2023-03-05T13:20:26.799Z,5.11
2023-03-05T13:23:18.665Z,5.29
2023-03-05T13:25:56.441Z,5.30
2023-03-05T13:28:25.164Z,5.60
2023-03-05T13:30:56.350Z,5.66
2023-03-05T13:33:28.213Z,5.93
2023-03-05T13:35:55.660Z,5.90
2023-03-05T13:38:28.393Z,6.03
2023-03-05T13:41:04.096Z,5.90
2023-03-05T13:43:32.761Z,5.49
2023-03-05T13:45:59.893Z,5.50
2023-03-05T13:48:28.513Z,5.26
2023-03-05T13:50:57.711Z,5.37
2023-03-05T13:53:30.515Z,5.43
2023-03-05T13:56:06.524Z,5.58
2023-03-05T13:58:48.555Z,5.54
2023-03-05T14:01:28.834Z,5.52
2023-03-05T14:04:07.058Z,5.28
2023-03-05T14:06:41.831Z,4.93
2023-03-05T14:09:20.333Z,5.26
2023-03-05T14:12:03.064Z,5.21
2023-03-05T14:14:34.724Z,5.17
2023-03-05T14:17:23.621Z,5.14
2023-03-05T14:19:50.919Z,4.95
2023-03-05T14:22:38.169Z,5.05
2023-03-05T14:25:06.992Z,4.80
2023-03-05T14:27:36.293Z,4.80
2023-03-05T14:30:05.076Z,4.60
2023-03-05T14:32:35.837Z,4.90
2023-03-05T14:35:05.782Z,4.80
2023-03-05T14:37:36.806Z,4.58
2023-03-05T14:40:07.293Z,4.52
2023-03-05T14:42:39.437Z,4.55
2023-03-05T14:45:10.793Z,4.59
2023-03-05T14:47:37.905Z,4.52
2023-03-05T14:50:06.546Z,4.44
2023-03-05T14:52:34.735Z,4.47
2023-03-05T14:55:02.148Z,4.64
2023-03-05T14:57:31.691Z,4.68
2023-03-05T14:59:58.877Z,4.45
2023-03-05T15:02:26.897Z,4.53
2023-03-05T15:04:53.964Z,4.21
2023-03-05T15:07:28.508Z,4.40
2023-03-05T15:09:55.841Z,4.61
2023-03-05T15:12:24.635Z,3.97
2023-03-05T15:14:54.135Z,4.74
2023-03-05T15:17:25.773Z,4.40
2023-03-05T15:19:53.736Z,4.75
2023-03-05T15:22:21.080Z,4.87
2023-03-05T15:24:48.119Z,4.88
2023-03-05T15:27:15.092Z,4.85
2023-03-05T15:29:42.120Z,4.73
2023-03-05T15:32:09.293Z,4.58
2023-03-05T15:34:36.575Z,4.65
2023-03-05T15:37:04.222Z,4.60
2023-03-05T15:39:31.503Z,4.57
2023-03-05T15:41:58.997Z,4.29
2023-03-05T15:44:26.187Z,4.30
2023-03-05T15:46:53.354Z,4.57
2023-03-05T15:49:22.591Z,4.11
2023-03-05T15:51:50.703Z,4.43
2023-03-05T15:54:18.571Z,4.32
2023-03-05T15:56:45.582Z,4.19
2023-03-05T15:59:13.431Z,4.09
2023-03-05T16:01:45.603Z,3.87
2023-03-05T16:04:14.262Z,4.09
2023-03-05T16:06:41.943Z,3.85
2023-03-05T16:09:09.377Z,3.86
2023-03-05T16:11:39.680Z,3.78
2023-03-05T16:14:09.055Z,3.74
2023-03-05T16:16:36.469Z,4.19
2023-03-05T16:19:06.158Z,4.16
2023-03-05T16:21:33.309Z,4.04
2023-03-05T16:24:00.334Z,4.05
2023-03-05T16:26:27.303Z,4.03
2023-03-05T16:28:54.484Z,4.09
2023-03-05T16:31:21.530Z,4.16
2023-03-05T16:33:48.570Z,3.92
2023-03-05T16:36:22.574Z,3.94
2023-03-05T16:38:51.671Z,3.92
2023-03-05T16:41:21.949Z,3.47
2023-03-05T16:43:51.367Z,3.86
2023-03-05T16:46:18.408Z,3.91
2023-03-05T16:48:46.087Z,3.78
2023-03-05T16:51:13.091Z,3.78
2023-03-05T16:53:40.547Z,3.93
2023-03-05T16:56:09.598Z,3.55
2023-03-05T16:58:38.253Z,3.78
2023-03-05T17:01:10.456Z,3.74
2023-03-05T17:03:41.640Z,3.69
2023-03-05T17:06:13.657Z,3.36
2023-03-05T17:08:42.668Z,3.59
2023-03-05T17:11:11.935Z,3.56
2023-03-05T17:13:40.430Z,3.26
2023-03-05T17:16:09.486Z,3.62
2023-03-05T17:18:36.874Z,3.65
2023-03-05T17:21:07.042Z,3.69
2023-03-05T17:23:36.078Z,3.54
2023-03-05T17:26:05.237Z,3.62
2023-03-05T17:28:32.752Z,3.61
2023-03-05T17:31:01.315Z,3.66
2023-03-05T17:33:29.010Z,3.49
2023-03-05T17:35:56.396Z,3.78
2023-03-05T17:38:24.223Z,3.52
2023-03-05T17:40:51.312Z,3.71
2023-03-05T17:43:18.945Z,3.57
2023-03-05T17:45:47.298Z,3.54
2023-03-05T17:48:15.922Z,3.54
2023-03-05T17:50:44.824Z,3.52
2023-03-05T17:53:12.566Z,3.50
2023-03-05T17:55:40.355Z,3.46
2023-03-05T17:58:08.039Z,3.56
2023-03-05T18:00:36.097Z,3.25
2023-03-05T18:03:04.011Z,3.36
2023-03-05T18:05:31.652Z,3.50
2023-03-05T18:08:00.019Z,3.58
2023-03-05T18:10:28.487Z,3.31
2023-03-05T18:12:56.013Z,3.44
2023-03-05T18:15:25.840Z,3.44
2023-03-05T18:17:53.210Z,3.43
2023-03-05T18:20:30.086Z,3.55
2023-03-05T18:22:58.842Z,3.53
2023-03-05T18:25:30.768Z,3.50
2023-03-05T18:28:02.483Z,3.56
2023-03-05T18:30:31.018Z,3.56
2023-03-05T18:32:58.794Z,3.56
2023-03-05T18:35:26.972Z,3.56
2023-03-05T18:37:54.028Z,3.54
2023-03-05T18:40:23.746Z,3.53
2023-03-05T18:42:51.634Z,3.54
2023-03-05T18:45:21.130Z,3.55
2023-03-05T18:47:53.791Z,3.65
2023-03-05T18:50:22.837Z,3.62
2023-03-05T18:52:49.941Z,3.57
2023-03-05T18:55:19.421Z,3.57
2023-03-05T18:57:47.009Z,3.56
2023-03-05T19:00:16.882Z,3.56
2023-03-05T19:02:43.927Z,3.58
2023-03-05T19:05:13.214Z,3.49
2023-03-05T19:07:40.438Z,3.48
2023-03-05T19:10:10.089Z,3.72
2023-03-05T19:12:45.211Z,3.64
2023-03-05T19:15:13.304Z,3.51
2023-03-05T19:17:40.457Z,3.47
2023-03-05T19:20:10.911Z,3.48
2023-03-05T19:22:38.033Z,3.60
2023-03-05T19:25:06.312Z,3.54
2023-03-05T19:27:33.348Z,3.54
2023-03-05T19:30:00.784Z,3.57
2023-03-05T19:32:28.104Z,3.48
2023-03-05T19:34:57.141Z,3.56
2023-03-05T19:37:25.464Z,3.52
2023-03-05T19:39:52.902Z,3.51
2023-03-05T19:42:20.393Z,3.51
2023-03-05T19:44:47.437Z,3.48
2023-03-05T19:47:14.768Z,3.34
2023-03-05T19:49:41.834Z,3.31
2023-03-05T19:52:08.952Z,3.41
2023-03-05T19:54:36.036Z,2.88
2023-03-05T19:57:03.109Z,3.38
2023-03-05T19:59:30.147Z,2.79
2023-03-05T20:01:57.327Z,3.17
2023-03-05T20:04:25.038Z,3.29
2023-03-05T20:06:52.327Z,3.33
2023-03-05T20:09:19.642Z,3.28
2023-03-05T20:11:47.252Z,3.21
2023-03-05T20:14:14.658Z,3.02
2023-03-05T20:16:43.072Z,3.18
2023-03-05T20:19:16.779Z,3.14
2023-03-05T20:21:44.777Z,3.12
2023-03-05T20:24:16.335Z,3.11
2023-03-05T20:26:44.667Z,3.22
2023-03-05T20:29:14.874Z,3.10
2023-03-05T20:31:44.620Z,3.12
2023-03-05T20:34:14.705Z,2.89
2023-03-05T20:36:41.840Z,2.53
2023-03-05T20:39:08.922Z,3.16
2023-03-05T20:41:38.177Z,3.19
2023-03-05T20:44:06.123Z,3.17
2023-03-05T20:46:49.581Z,3.13
2023-03-05T20:49:16.764Z,3.18
2023-03-05T20:51:43.780Z,3.09
2023-03-05T20:54:13.162Z,3.08
2023-03-05T20:56:40.327Z,3.11
2023-03-05T20:59:08.695Z,3.12
2023-03-05T21:01:38.018Z,3.17
2023-03-05T21:04:05.763Z,3.00
2023-03-05T21:06:33.500Z,3.12
2023-03-05T21:09:00.829Z,2.90
2023-03-05T21:11:33.280Z,2.88
2023-03-05T21:14:00.902Z,3.10
2023-03-05T21:16:28.129Z,3.12
2023-03-05T21:18:57.141Z,2.92
2023-03-05T21:21:24.265Z,2.81
2023-03-05T21:23:52.057Z,3.19
2023-03-05T21:26:19.865Z,3.06
2023-03-05T21:28:46.924Z,2.86
2023-03-05T21:31:20.456Z,3.17
2023-03-05T21:33:48.856Z,3.25
2023-03-05T21:36:19.021Z,2.71
2023-03-05T21:38:48.304Z,2.83
2023-03-05T21:41:15.984Z,3.14
2023-03-05T21:43:43.275Z,3.09
2023-03-05T21:46:10.849Z,2.84
2023-03-05T21:48:38.119Z,3.00
2023-03-05T21:51:08.557Z,3.00
2023-03-05T21:53:35.929Z,3.18
2023-03-05T21:56:19.487Z,3.01
2023-03-05T21:58:47.576Z,3.09
2023-03-05T22:01:24.488Z,2.71
2023-03-05T22:03:51.818Z,3.19
2023-03-05T22:06:19.829Z,3.13
2023-03-05T22:08:47.242Z,2.74
2023-03-05T22:11:16.618Z,3.20
2023-03-05T22:13:43.913Z,2.93
2023-03-05T22:16:11.130Z,3.18
2023-03-05T22:18:38.204Z,3.08
2023-03-05T22:21:05.704Z,3.12
2023-03-05T22:23:36.663Z,3.22
2023-03-05T22:26:06.673Z,3.03
2023-03-05T22:28:34.940Z,3.02
2023-03-05T22:31:02.225Z,3.20
2023-03-05T22:33:29.689Z,3.34
2023-03-05T22:35:57.266Z,3.23
2023-03-05T22:38:25.336Z,3.21
2023-03-05T22:40:52.614Z,3.08
2023-03-05T22:43:20.340Z,2.97
2023-03-05T22:45:47.702Z,2.97
2023-03-05T22:48:15.407Z,2.97
2023-03-05T22:50:44.175Z,2.94
2023-03-05T22:53:12.474Z,3.03
2023-03-05T22:55:42.731Z,3.01
2023-03-05T22:58:09.944Z,2.95
2023-03-05T23:00:37.562Z,2.92
2023-03-05T23:03:06.267Z,2.86
2023-03-05T23:05:34.451Z,2.83
2023-03-05T23:08:01.639Z,2.60
2023-03-05T23:10:29.235Z,2.93
2023-03-05T23:12:59.121Z,2.86
2023-03-05T23:15:35.100Z,2.81
2023-03-05T23:18:03.064Z,2.84
2023-03-05T23:20:33.968Z,2.81
2023-03-05T23:23:02.194Z,2.85
2023-03-05T23:25:31.475Z,2.91
2023-03-05T23:27:59.307Z,2.85
2023-03-05T23:30:28.146Z,2.82
2023-03-05T23:32:57.766Z,3.05
2023-03-05T23:35:40.048Z,2.83
2023-03-05T23:38:11.719Z,3.18
2023-03-05T23:40:45.208Z,3.12
2023-03-05T23:43:13.299Z,2.82
2023-03-05T23:45:42.143Z,3.05
2023-03-05T23:48:09.778Z,2.99
2023-03-05T23:50:39.804Z,2.90
2023-03-05T23:53:08.090Z,2.71
2023-03-05T23:55:44.580Z,2.89
2023-03-05T23:58:11.998Z,2.97
